sensor_id;sensor_type;location;lat;lon;timestamp;P1;durP1;ratioP1;P2;durP2;ratioP2
64403;SDS011;50726;54.912;-8.392;2022-08-21T00:00:42;1277.13;;;999.90;;
64403;SDS011;50726;54.912;-8.392;2022-08-21T00:03:08;1272.15;;;999.90;;
64403;SDS011;50726;54.912;-8.392;2022-08-21T00:05:45;1267.47;;;999.90;;
64403;SDS011;50726;54.912;-8.392;2022-08-21T00:08:15;1252.78;;;999.90;;
64403;SDS011;50726;54.912;-8.392;2022-08-21T00:10:42;1261.97;;;999.90;;
64403;SDS011;50726;54.912;-8.392;2022-08-21T00:13:09;1281.32;;;999.90;;
64403;SDS011;50726;54.912;-8.392;2022-08-21T00:15:37;1278.18;;;999.90;;
64403;SDS011;50726;54.912;-8.392;2022-08-21T00:18:05;1260.38;;;999.90;;
64403;SDS011;50726;54.912;-8.392;2022-08-21T00:20:33;1271.20;;;999.90;;
64403;SDS011;50726;54.912;-8.392;2022-08-21T00:22:59;1275.57;;;999.90;;
64403;SDS011;50726;54.912;-8.392;2022-08-21T00:25:25;1250.88;;;999.90;;
64403;SDS011;50726;54.912;-8.392;2022-08-21T00:27:51;1261.82;;;999.90;;
64403;SDS011;50726;54.912;-8.392;2022-08-21T00:30:18;1258.53;;;999.90;;
64403;SDS011;50726;54.912;-8.392;2022-08-21T00:32:46;1267.55;;;999.90;;
64403;SDS011;50726;54.912;-8.392;2022-08-21T00:35:13;1269.75;;;999.90;;
64403;SDS011;50726;54.912;-8.392;2022-08-21T00:37:40;1267.10;;;999.90;;
64403;SDS011;50726;54.912;-8.392;2022-08-21T00:40:08;1257.18;;;999.90;;
64403;SDS011;50726;54.912;-8.392;2022-08-21T00:42:38;1258.00;;;999.90;;
64403;SDS011;50726;54.912;-8.392;2022-08-21T00:45:04;1245.75;;;999.90;;
64403;SDS011;50726;54.912;-8.392;2022-08-21T00:47:30;1247.65;;;999.90;;
64403;SDS011;50726;54.912;-8.392;2022-08-21T00:49:56;1237.57;;;999.90;;
64403;SDS011;50726;54.912;-8.392;2022-08-21T00:52:23;1249.78;;;999.90;;
64403;SDS011;50726;54.912;-8.392;2022-08-21T00:54:52;1247.68;;;999.90;;
64403;SDS011;50726;54.912;-8.392;2022-08-21T00:57:21;1258.97;;;999.90;;
64403;SDS011;50726;54.912;-8.392;2022-08-21T00:59:51;1268.15;;;999.90;;
64403;SDS011;50726;54.912;-8.392;2022-08-21T01:02:18;1267.68;;;999.90;;
64403;SDS011;50726;54.912;-8.392;2022-08-21T01:04:46;1270.30;;;999.90;;
64403;SDS011;50726;54.912;-8.392;2022-08-21T01:07:12;1268.20;;;999.90;;
64403;SDS011;50726;54.912;-8.392;2022-08-21T01:09:38;1272.05;;;999.90;;
64403;SDS011;50726;54.912;-8.392;2022-08-21T01:12:05;1270.20;;;999.90;;
64403;SDS011;50726;54.912;-8.392;2022-08-21T01:14:31;1268.93;;;999.90;;
64403;SDS011;50726;54.912;-8.392;2022-08-21T01:16:58;1276.72;;;999.90;;
64403;SDS011;50726;54.912;-8.392;2022-08-21T01:19:29;1259.18;;;999.90;;
64403;SDS011;50726;54.912;-8.392;2022-08-21T01:21:55;1264.20;;;999.90;;
64403;SDS011;50726;54.912;-8.392;2022-08-21T01:24:22;1214.43;;;999.90;;
64403;SDS011;50726;54.912;-8.392;2022-08-21T01:26:50;1261.22;;;999.90;;
64403;SDS011;50726;54.912;-8.392;2022-08-21T01:29:22;1271.85;;;999.90;;
64403;SDS011;50726;54.912;-8.392;2022-08-21T01:31:56;1257.32;;;999.90;;
64403;SDS011;50726;54.912;-8.392;2022-08-21T01:34:23;1227.55;;;999.90;;
64403;SDS011;50726;54.912;-8.392;2022-08-21T01:36:48;1253.78;;;999.90;;
64403;SDS011;50726;54.912;-8.392;2022-08-21T01:39:14;1262.63;;;999.90;;
64403;SDS011;50726;54.912;-8.392;2022-08-21T01:41:41;1260.20;;;999.90;;
64403;SDS011;50726;54.912;-8.392;2022-08-21T01:44:06;1274.35;;;999.90;;
64403;SDS011;50726;54.912;-8.392;2022-08-21T01:46:32;1268.57;;;999.90;;
64403;SDS011;50726;54.912;-8.392;2022-08-21T01:48:58;1265.50;;;999.90;;
64403;SDS011;50726;54.912;-8.392;2022-08-21T01:51:24;1264.95;;;999.90;;
64403;SDS011;50726;54.912;-8.392;2022-08-21T01:53:49;1267.55;;;999.90;;
64403;SDS011;50726;54.912;-8.392;2022-08-21T01:56:15;1271.22;;;999.90;;
64403;SDS011;50726;54.912;-8.392;2022-08-21T01:58:44;1260.82;;;999.90;;
64403;SDS011;50726;54.912;-8.392;2022-08-21T02:01:13;1272.57;;;999.90;;
64403;SDS011;50726;54.912;-8.392;2022-08-21T02:03:40;1262.93;;;999.90;;
64403;SDS011;50726;54.912;-8.392;2022-08-21T02:06:10;1262.85;;;999.90;;
64403;SDS011;50726;54.912;-8.392;2022-08-21T02:08:39;1263.25;;;999.90;;
64403;SDS011;50726;54.912;-8.392;2022-08-21T02:11:05;1261.60;;;999.90;;
64403;SDS011;50726;54.912;-8.392;2022-08-21T02:13:31;1255.00;;;999.90;;
64403;SDS011;50726;54.912;-8.392;2022-08-21T02:15:57;1243.25;;;999.90;;
64403;SDS011;50726;54.912;-8.392;2022-08-21T02:18:23;1236.35;;;999.90;;
64403;SDS011;50726;54.912;-8.392;2022-08-21T02:20:48;1234.72;;;999.90;;
64403;SDS011;50726;54.912;-8.392;2022-08-21T02:23:15;1237.90;;;999.90;;
64403;SDS011;50726;54.912;-8.392;2022-08-21T02:25:41;1230.97;;;999.90;;
64403;SDS011;50726;54.912;-8.392;2022-08-21T02:28:08;1237.60;;;999.90;;
64403;SDS011;50726;54.912;-8.392;2022-08-21T02:30:37;1243.53;;;999.90;;
64403;SDS011;50726;54.912;-8.392;2022-08-21T02:33:06;1238.10;;;999.90;;
64403;SDS011;50726;54.912;-8.392;2022-08-21T02:35:35;1246.88;;;999.90;;
64403;SDS011;50726;54.912;-8.392;2022-08-21T02:38:03;1234.38;;;999.90;;
64403;SDS011;50726;54.912;-8.392;2022-08-21T02:42:58;1252.70;;;999.90;;
64403;SDS011;50726;54.912;-8.392;2022-08-21T02:45:24;1249.72;;;999.90;;
64403;SDS011;50726;54.912;-8.392;2022-08-21T02:47:52;1253.78;;;999.90;;
64403;SDS011;50726;54.912;-8.392;2022-08-21T02:50:26;1245.75;;;999.90;;
64403;SDS011;50726;54.912;-8.392;2022-08-21T02:53:03;1256.10;;;999.90;;
64403;SDS011;50726;54.912;-8.392;2022-08-21T02:55:31;1254.20;;;999.90;;
64403;SDS011;50726;54.912;-8.392;2022-08-21T02:57:58;1259.35;;;999.90;;
64403;SDS011;50726;54.912;-8.392;2022-08-21T03:00:26;1257.00;;;999.90;;
64403;SDS011;50726;54.912;-8.392;2022-08-21T03:02:56;1245.90;;;999.90;;
64403;SDS011;50726;54.912;-8.392;2022-08-21T03:05:23;1253.75;;;999.90;;
64403;SDS011;50726;54.912;-8.392;2022-08-21T03:07:49;1241.80;;;999.90;;
64403;SDS011;50726;54.912;-8.392;2022-08-21T03:10:16;1237.63;;;999.90;;
64403;SDS011;50726;54.912;-8.392;2022-08-21T03:12:42;1236.30;;;999.90;;
64403;SDS011;50726;54.912;-8.392;2022-08-21T03:15:13;1234.47;;;999.90;;
64403;SDS011;50726;54.912;-8.392;2022-08-21T03:17:42;1228.13;;;999.90;;
64403;SDS011;50726;54.912;-8.392;2022-08-21T03:20:09;1216.15;;;999.90;;
64403;SDS011;50726;54.912;-8.392;2022-08-21T03:22:35;1227.75;;;999.90;;
64403;SDS011;50726;54.912;-8.392;2022-08-21T03:25:02;1221.60;;;999.90;;
64403;SDS011;50726;54.912;-8.392;2022-08-21T03:27:28;1232.38;;;999.90;;
64403;SDS011;50726;54.912;-8.392;2022-08-21T03:29:56;1222.07;;;999.90;;
64403;SDS011;50726;54.912;-8.392;2022-08-21T03:32:22;1147.10;;;999.90;;
64403;SDS011;50726;54.912;-8.392;2022-08-21T03:34:47;1126.60;;;999.90;;
64403;SDS011;50726;54.912;-8.392;2022-08-21T03:37:13;1096.78;;;999.90;;
64403;SDS011;50726;54.912;-8.392;2022-08-21T03:39:40;1161.25;;;999.90;;
64403;SDS011;50726;54.912;-8.392;2022-08-21T03:42:06;1155.43;;;999.90;;
64403;SDS011;50726;54.912;-8.392;2022-08-21T03:44:33;1181.43;;;999.90;;
64403;SDS011;50726;54.912;-8.392;2022-08-21T03:46:59;1171.30;;;999.90;;
64403;SDS011;50726;54.912;-8.392;2022-08-21T03:49:25;1171.40;;;999.90;;
64403;SDS011;50726;54.912;-8.392;2022-08-21T03:51:52;1189.93;;;999.90;;
64403;SDS011;50726;54.912;-8.392;2022-08-21T03:54:18;1233.03;;;999.90;;
64403;SDS011;50726;54.912;-8.392;2022-08-21T03:56:44;1219.00;;;999.90;;
64403;SDS011;50726;54.912;-8.392;2022-08-21T03:59:10;1207.13;;;999.90;;
64403;SDS011;50726;54.912;-8.392;2022-08-21T04:01:37;1208.07;;;999.90;;
64403;SDS011;50726;54.912;-8.392;2022-08-21T04:04:03;1197.70;;;999.90;;
64403;SDS011;50726;54.912;-8.392;2022-08-21T04:06:30;1173.93;;;999.90;;
64403;SDS011;50726;54.912;-8.392;2022-08-21T04:08:56;1161.20;;;999.90;;
64403;SDS011;50726;54.912;-8.392;2022-08-21T04:11:22;1166.93;;;999.90;;
64403;SDS011;50726;54.912;-8.392;2022-08-21T04:13:48;1178.22;;;999.90;;
64403;SDS011;50726;54.912;-8.392;2022-08-21T04:16:14;1182.70;;;999.90;;
64403;SDS011;50726;54.912;-8.392;2022-08-21T04:18:40;1189.82;;;999.90;;
64403;SDS011;50726;54.912;-8.392;2022-08-21T04:21:07;1182.57;;;999.90;;
64403;SDS011;50726;54.912;-8.392;2022-08-21T04:23:35;1138.07;;;999.90;;
64403;SDS011;50726;54.912;-8.392;2022-08-21T04:26:02;1083.75;;;999.90;;
64403;SDS011;50726;54.912;-8.392;2022-08-21T04:28:27;1092.50;;;999.90;;
64403;SDS011;50726;54.912;-8.392;2022-08-21T04:30:53;1092.93;;;999.90;;
64403;SDS011;50726;54.912;-8.392;2022-08-21T04:33:20;1153.38;;;999.90;;
64403;SDS011;50726;54.912;-8.392;2022-08-21T04:35:47;1181.57;;;999.90;;
64403;SDS011;50726;54.912;-8.392;2022-08-21T04:38:14;1174.63;;;999.90;;
64403;SDS011;50726;54.912;-8.392;2022-08-21T04:40:39;1156.30;;;999.90;;
64403;SDS011;50726;54.912;-8.392;2022-08-21T04:43:06;1152.53;;;999.90;;
64403;SDS011;50726;54.912;-8.392;2022-08-21T04:45:38;1166.82;;;999.90;;
64403;SDS011;50726;54.912;-8.392;2022-08-21T04:48:09;1169.95;;;999.90;;
64403;SDS011;50726;54.912;-8.392;2022-08-21T04:50:37;1152.45;;;999.90;;
64403;SDS011;50726;54.912;-8.392;2022-08-21T04:53:11;1090.28;;;999.90;;
64403;SDS011;50726;54.912;-8.392;2022-08-21T04:55:43;1099.70;;;999.90;;
64403;SDS011;50726;54.912;-8.392;2022-08-21T04:58:11;1088.78;;;999.90;;
64403;SDS011;50726;54.912;-8.392;2022-08-21T05:00:40;1116.32;;;999.90;;
64403;SDS011;50726;54.912;-8.392;2022-08-21T05:03:06;1164.18;;;999.90;;
64403;SDS011;50726;54.912;-8.392;2022-08-21T05:05:34;1171.68;;;999.90;;
64403;SDS011;50726;54.912;-8.392;2022-08-21T05:08:01;1160.15;;;999.90;;
64403;SDS011;50726;54.912;-8.392;2022-08-21T05:10:27;1164.35;;;999.90;;
64403;SDS011;50726;54.912;-8.392;2022-08-21T05:12:53;1176.32;;;999.90;;
64403;SDS011;50726;54.912;-8.392;2022-08-21T05:15:20;1174.00;;;999.90;;
64403;SDS011;50726;54.912;-8.392;2022-08-21T05:17:46;1186.57;;;999.90;;
64403;SDS011;50726;54.912;-8.392;2022-08-21T05:20:13;1190.07;;;999.90;;
64403;SDS011;50726;54.912;-8.392;2022-08-21T05:22:39;1208.03;;;999.90;;
64403;SDS011;50726;54.912;-8.392;2022-08-21T05:25:06;1213.70;;;999.90;;
64403;SDS011;50726;54.912;-8.392;2022-08-21T05:27:33;1229.72;;;999.90;;
64403;SDS011;50726;54.912;-8.392;2022-08-21T05:30:00;1198.45;;;999.90;;
64403;SDS011;50726;54.912;-8.392;2022-08-21T05:32:27;1208.70;;;999.90;;
64403;SDS011;50726;54.912;-8.392;2022-08-21T05:34:53;1218.32;;;999.90;;
64403;SDS011;50726;54.912;-8.392;2022-08-21T05:37:19;1230.10;;;999.90;;
64403;SDS011;50726;54.912;-8.392;2022-08-21T05:39:45;1222.90;;;999.90;;
64403;SDS011;50726;54.912;-8.392;2022-08-21T05:42:12;1218.97;;;999.90;;
64403;SDS011;50726;54.912;-8.392;2022-08-21T05:44:38;1206.25;;;999.90;;
64403;SDS011;50726;54.912;-8.392;2022-08-21T05:47:07;1211.07;;;999.90;;
64403;SDS011;50726;54.912;-8.392;2022-08-21T05:49:34;1214.25;;;999.90;;
64403;SDS011;50726;54.912;-8.392;2022-08-21T05:52:00;1211.55;;;999.90;;
64403;SDS011;50726;54.912;-8.392;2022-08-21T05:54:26;1182.95;;;999.90;;
64403;SDS011;50726;54.912;-8.392;2022-08-21T05:56:52;1194.78;;;999.90;;
64403;SDS011;50726;54.912;-8.392;2022-08-21T05:59:18;1192.63;;;999.90;;
64403;SDS011;50726;54.912;-8.392;2022-08-21T06:01:44;1193.72;;;999.90;;
64403;SDS011;50726;54.912;-8.392;2022-08-21T06:04:10;1179.78;;;999.90;;
64403;SDS011;50726;54.912;-8.392;2022-08-21T06:06:36;1191.07;;;999.90;;
64403;SDS011;50726;54.912;-8.392;2022-08-21T06:09:03;1196.50;;;999.90;;
64403;SDS011;50726;54.912;-8.392;2022-08-21T06:11:30;1209.30;;;999.90;;
64403;SDS011;50726;54.912;-8.392;2022-08-21T06:13:56;1203.10;;;999.90;;
64403;SDS011;50726;54.912;-8.392;2022-08-21T06:16:22;1214.25;;;999.90;;
64403;SDS011;50726;54.912;-8.392;2022-08-21T06:18:48;1215.78;;;999.90;;
64403;SDS011;50726;54.912;-8.392;2022-08-21T06:21:14;1193.53;;;999.90;;
64403;SDS011;50726;54.912;-8.392;2022-08-21T06:23:40;1179.93;;;999.90;;
64403;SDS011;50726;54.912;-8.392;2022-08-21T06:26:07;1187.15;;;999.90;;
64403;SDS011;50726;54.912;-8.392;2022-08-21T06:28:34;1184.32;;;999.90;;
64403;SDS011;50726;54.912;-8.392;2022-08-21T06:31:09;1179.13;;;999.90;;
64403;SDS011;50726;54.912;-8.392;2022-08-21T06:33:43;1202.80;;;999.90;;
64403;SDS011;50726;54.912;-8.392;2022-08-21T06:36:08;1183.72;;;999.90;;
64403;SDS011;50726;54.912;-8.392;2022-08-21T06:38:35;1186.28;;;999.90;;
64403;SDS011;50726;54.912;-8.392;2022-08-21T06:41:01;1176.78;;;999.90;;
64403;SDS011;50726;54.912;-8.392;2022-08-21T06:43:27;1166.00;;;999.90;;
64403;SDS011;50726;54.912;-8.392;2022-08-21T06:45:53;1148.22;;;999.90;;
64403;SDS011;50726;54.912;-8.392;2022-08-21T06:48:19;1164.57;;;999.90;;
64403;SDS011;50726;54.912;-8.392;2022-08-21T06:50:45;1154.78;;;999.90;;
64403;SDS011;50726;54.912;-8.392;2022-08-21T06:53:12;1142.68;;;999.90;;
64403;SDS011;50726;54.912;-8.392;2022-08-21T06:55:41;1115.95;;;999.90;;
64403;SDS011;50726;54.912;-8.392;2022-08-21T06:58:07;1009.40;;;955.45;;
64403;SDS011;50726;54.912;-8.392;2022-08-21T07:00:34;998.53;;;945.25;;
64403;SDS011;50726;54.912;-8.392;2022-08-21T07:03:03;910.67;;;861.80;;
64403;SDS011;50726;54.912;-8.392;2022-08-21T07:05:29;999.00;;;945.25;;
64403;SDS011;50726;54.912;-8.392;2022-08-21T07:07:55;1099.80;;;999.90;;
64403;SDS011;50726;54.912;-8.392;2022-08-21T07:10:22;1112.90;;;999.90;;
64403;SDS011;50726;54.912;-8.392;2022-08-21T07:12:49;1089.03;;;999.90;;
64403;SDS011;50726;54.912;-8.392;2022-08-21T07:15:15;1023.53;;;967.40;;
64403;SDS011;50726;54.912;-8.392;2022-08-21T07:17:41;1069.50;;;999.90;;
64403;SDS011;50726;54.912;-8.392;2022-08-21T07:20:06;1103.18;;;999.90;;
64403;SDS011;50726;54.912;-8.392;2022-08-21T07:22:32;1086.47;;;999.90;;
64403;SDS011;50726;54.912;-8.392;2022-08-21T07:25:00;1037.45;;;980.85;;
64403;SDS011;50726;54.912;-8.392;2022-08-21T07:27:26;949.15;;;898.28;;
64403;SDS011;50726;54.912;-8.392;2022-08-21T07:29:52;743.42;;;703.95;;
64403;SDS011;50726;54.912;-8.392;2022-08-21T07:32:18;768.25;;;726.55;;
64403;SDS011;50726;54.912;-8.392;2022-08-21T07:34:43;851.42;;;805.13;;
64403;SDS011;50726;54.912;-8.392;2022-08-21T07:37:09;909.53;;;860.10;;
64403;SDS011;50726;54.912;-8.392;2022-08-21T07:39:35;992.00;;;939.17;;
64403;SDS011;50726;54.912;-8.392;2022-08-21T07:42:01;1024.00;;;968.72;;
64403;SDS011;50726;54.912;-8.392;2022-08-21T07:44:28;974.47;;;922.40;;
64403;SDS011;50726;54.912;-8.392;2022-08-21T07:46:54;944.22;;;894.17;;
64403;SDS011;50726;54.912;-8.392;2022-08-21T07:49:19;1021.47;;;966.90;;
64403;SDS011;50726;54.912;-8.392;2022-08-21T07:51:45;1009.45;;;955.72;;
64403;SDS011;50726;54.912;-8.392;2022-08-21T07:54:11;1024.32;;;969.42;;
64403;SDS011;50726;54.912;-8.392;2022-08-21T07:56:37;984.17;;;931.80;;
64403;SDS011;50726;54.912;-8.392;2022-08-21T07:59:02;949.90;;;899.70;;
64403;SDS011;50726;54.912;-8.392;2022-08-21T08:01:28;1029.43;;;973.83;;
64403;SDS011;50726;54.912;-8.392;2022-08-21T08:03:54;994.25;;;941.15;;
64403;SDS011;50726;54.912;-8.392;2022-08-21T08:06:21;892.10;;;844.17;;
64403;SDS011;50726;54.912;-8.392;2022-08-21T08:08:48;863.28;;;817.00;;
64403;SDS011;50726;54.912;-8.392;2022-08-21T08:11:14;956.85;;;905.78;;
64403;SDS011;50726;54.912;-8.392;2022-08-21T08:13:46;829.67;;;784.40;;
64403;SDS011;50726;54.912;-8.392;2022-08-21T08:16:15;660.50;;;624.97;;
64403;SDS011;50726;54.912;-8.392;2022-08-21T08:18:41;522.20;;;493.88;;
64403;SDS011;50726;54.912;-8.392;2022-08-21T08:21:07;465.70;;;439.27;;
64403;SDS011;50726;54.912;-8.392;2022-08-21T08:23:34;308.70;;;292.50;;
64403;SDS011;50726;54.912;-8.392;2022-08-21T08:26:00;311.33;;;294.88;;
64403;SDS011;50726;54.912;-8.392;2022-08-21T08:28:28;261.55;;;247.25;;
64403;SDS011;50726;54.912;-8.392;2022-08-21T08:30:55;317.20;;;299.80;;
64403;SDS011;50726;54.912;-8.392;2022-08-21T08:33:21;334.80;;;316.52;;
64403;SDS011;50726;54.912;-8.392;2022-08-21T08:35:48;347.60;;;328.08;;
64403;SDS011;50726;54.912;-8.392;2022-08-21T08:38:16;258.95;;;245.35;;
64403;SDS011;50726;54.912;-8.392;2022-08-21T08:40:52;170.32;;;161.73;;
64403;SDS011;50726;54.912;-8.392;2022-08-21T08:43:36;163.75;;;155.25;;
64403;SDS011;50726;54.912;-8.392;2022-08-21T08:46:02;122.38;;;116.05;;
64403;SDS011;50726;54.912;-8.392;2022-08-21T08:48:41;119.80;;;113.82;;
64403;SDS011;50726;54.912;-8.392;2022-08-21T08:54:19;89.97;;;84.63;;
64403;SDS011;50726;54.912;-8.392;2022-08-21T08:57:24;104.85;;;99.25;;
64403;SDS011;50726;54.912;-8.392;2022-08-21T08:59:51;78.78;;;73.97;;
64403;SDS011;50726;54.912;-8.392;2022-08-21T09:02:20;50.22;;;47.17;;
64403;SDS011;50726;54.912;-8.392;2022-08-21T09:04:48;16.15;;;14.88;;
64403;SDS011;50726;54.912;-8.392;2022-08-21T09:10:20;40.22;;;37.65;;
64403;SDS011;50726;54.912;-8.392;2022-08-21T09:13:13;69.53;;;64.47;;
64403;SDS011;50726;54.912;-8.392;2022-08-21T09:16:05;42.95;;;39.85;;
64403;SDS011;50726;54.912;-8.392;2022-08-21T09:24:00;54.00;;;50.83;;
64403;SDS011;50726;54.912;-8.392;2022-08-21T09:26:48;82.85;;;77.72;;
64403;SDS011;50726;54.912;-8.392;2022-08-21T09:29:15;105.05;;;99.07;;
64403;SDS011;50726;54.912;-8.392;2022-08-21T09:31:45;100.82;;;95.07;;
64403;SDS011;50726;54.912;-8.392;2022-08-21T09:34:11;87.50;;;82.95;;
64403;SDS011;50726;54.912;-8.392;2022-08-21T09:36:45;57.25;;;53.20;;
64403;SDS011;50726;54.912;-8.392;2022-08-21T09:39:22;40.72;;;37.95;;
64403;SDS011;50726;54.912;-8.392;2022-08-21T09:42:03;22.50;;;20.95;;
64403;SDS011;50726;54.912;-8.392;2022-08-21T09:44:32;16.38;;;14.68;;
64403;SDS011;50726;54.912;-8.392;2022-08-21T09:47:04;15.80;;;14.15;;
64403;SDS011;50726;54.912;-8.392;2022-08-21T09:49:31;15.60;;;13.15;;
64403;SDS011;50726;54.912;-8.392;2022-08-21T09:54:29;11.90;;;6.75;;
64403;SDS011;50726;54.912;-8.392;2022-08-21T09:57:04;7.82;;;5.97;;
64403;SDS011;50726;54.912;-8.392;2022-08-21T10:00:24;6.38;;;5.80;;
64403;SDS011;50726;54.912;-8.392;2022-08-21T10:02:51;9.05;;;5.88;;
64403;SDS011;50726;54.912;-8.392;2022-08-21T10:05:36;7.03;;;5.80;;
64403;SDS011;50726;54.912;-8.392;2022-08-21T10:08:04;14.45;;;4.38;;
64403;SDS011;50726;54.912;-8.392;2022-08-21T10:10:31;14.25;;;3.33;;
64403;SDS011;50726;54.912;-8.392;2022-08-21T10:13:13;13.35;;;2.75;;
64403;SDS011;50726;54.912;-8.392;2022-08-21T10:15:56;13.98;;;3.55;;
64403;SDS011;50726;54.912;-8.392;2022-08-21T10:18:37;16.30;;;2.67;;
64403;SDS011;50726;54.912;-8.392;2022-08-21T10:21:22;8.10;;;2.85;;
64403;SDS011;50726;54.912;-8.392;2022-08-21T10:35:26;14.45;;;1.98;;
64403;SDS011;50726;54.912;-8.392;2022-08-21T10:46:07;19.13;;;2.40;;
64403;SDS011;50726;54.912;-8.392;2022-08-21T10:48:42;7.82;;;1.98;;
64403;SDS011;50726;54.912;-8.392;2022-08-21T10:51:46;8.95;;;2.10;;
64403;SDS011;50726;54.912;-8.392;2022-08-21T10:54:38;12.75;;;2.72;;
64403;SDS011;50726;54.912;-8.392;2022-08-21T10:57:57;9.23;;;1.98;;
64403;SDS011;50726;54.912;-8.392;2022-08-21T11:00:17;10.30;;;1.73;;
64403;SDS011;50726;54.912;-8.392;2022-08-21T11:03:05;10.85;;;1.95;;
64403;SDS011;50726;54.912;-8.392;2022-08-21T11:05:40;5.85;;;1.58;;
64403;SDS011;50726;54.912;-8.392;2022-08-21T11:08:10;6.47;;;1.58;;
64403;SDS011;50726;54.912;-8.392;2022-08-21T11:15:53;6.63;;;1.67;;
64403;SDS011;50726;54.912;-8.392;2022-08-21T11:18:27;12.68;;;1.48;;
64403;SDS011;50726;54.912;-8.392;2022-08-21T11:23:55;4.63;;;1.20;;
64403;SDS011;50726;54.912;-8.392;2022-08-21T11:26:44;1.58;;;0.88;;
64403;SDS011;50726;54.912;-8.392;2022-08-21T11:29:16;12.57;;;2.63;;
64403;SDS011;50726;54.912;-8.392;2022-08-21T11:31:52;5.68;;;2.70;;
64403;SDS011;50726;54.912;-8.392;2022-08-21T11:36:51;4.30;;;1.10;;
64403;SDS011;50726;54.912;-8.392;2022-08-21T11:41:54;6.67;;;1.87;;
64403;SDS011;50726;54.912;-8.392;2022-08-21T11:45:32;15.97;;;1.63;;
64403;SDS011;50726;54.912;-8.392;2022-08-21T11:52:49;12.75;;;1.65;;
64403;SDS011;50726;54.912;-8.392;2022-08-21T11:55:33;7.18;;;1.90;;
64403;SDS011;50726;54.912;-8.392;2022-08-21T11:58:06;5.43;;;1.55;;
64403;SDS011;50726;54.912;-8.392;2022-08-21T12:01:10;6.25;;;2.17;;
64403;SDS011;50726;54.912;-8.392;2022-08-21T12:03:42;16.02;;;2.03;;
64403;SDS011;50726;54.912;-8.392;2022-08-21T12:06:26;9.52;;;1.60;;
64403;SDS011;50726;54.912;-8.392;2022-08-21T12:09:05;6.88;;;1.45;;
64403;SDS011;50726;54.912;-8.392;2022-08-21T12:11:45;7.05;;;1.33;;
64403;SDS011;50726;54.912;-8.392;2022-08-21T12:14:15;10.30;;;1.45;;
64403;SDS011;50726;54.912;-8.392;2022-08-21T12:16:45;7.68;;;1.40;;
64403;SDS011;50726;54.912;-8.392;2022-08-21T12:21:51;6.38;;;1.52;;
64403;SDS011;50726;54.912;-8.392;2022-08-21T12:24:48;4.75;;;0.88;;
64403;SDS011;50726;54.912;-8.392;2022-08-21T12:27:22;8.82;;;1.48;;
64403;SDS011;50726;54.912;-8.392;2022-08-21T12:30:00;6.45;;;1.55;;
64403;SDS011;50726;54.912;-8.392;2022-08-21T12:35:12;11.35;;;2.15;;
64403;SDS011;50726;54.912;-8.392;2022-08-21T12:37:40;7.15;;;1.85;;
64403;SDS011;50726;54.912;-8.392;2022-08-21T12:42:44;8.13;;;1.83;;
64403;SDS011;50726;54.912;-8.392;2022-08-21T12:47:56;5.82;;;1.10;;
64403;SDS011;50726;54.912;-8.392;2022-08-21T12:50:35;10.15;;;1.42;;
64403;SDS011;50726;54.912;-8.392;2022-08-21T12:55:51;10.88;;;1.77;;
64403;SDS011;50726;54.912;-8.392;2022-08-21T12:58:21;8.23;;;1.40;;
64403;SDS011;50726;54.912;-8.392;2022-08-21T13:00:56;10.98;;;1.75;;
64403;SDS011;50726;54.912;-8.392;2022-08-21T13:03:28;5.97;;;2.03;;
64403;SDS011;50726;54.912;-8.392;2022-08-21T13:05:54;3.17;;;0.75;;
64403;SDS011;50726;54.912;-8.392;2022-08-21T13:08:20;7.18;;;1.40;;
64403;SDS011;50726;54.912;-8.392;2022-08-21T13:10:55;5.82;;;1.00;;
64403;SDS011;50726;54.912;-8.392;2022-08-21T13:13:25;6.03;;;1.60;;
64403;SDS011;50726;54.912;-8.392;2022-08-21T13:15:56;6.30;;;1.27;;
64403;SDS011;50726;54.912;-8.392;2022-08-21T13:18:25;3.60;;;1.00;;
64403;SDS011;50726;54.912;-8.392;2022-08-21T13:21:02;7.13;;;1.13;;
64403;SDS011;50726;54.912;-8.392;2022-08-21T13:23:46;6.20;;;1.30;;
64403;SDS011;50726;54.912;-8.392;2022-08-21T13:26:13;3.97;;;1.38;;
64403;SDS011;50726;54.912;-8.392;2022-08-21T13:28:38;8.68;;;1.40;;
64403;SDS011;50726;54.912;-8.392;2022-08-21T13:31:06;8.20;;;1.35;;
64403;SDS011;50726;54.912;-8.392;2022-08-21T13:33:38;8.82;;;1.17;;
64403;SDS011;50726;54.912;-8.392;2022-08-21T13:38:37;5.90;;;1.25;;
64403;SDS011;50726;54.912;-8.392;2022-08-21T13:41:08;6.63;;;1.50;;
64403;SDS011;50726;54.912;-8.392;2022-08-21T13:43:45;4.55;;;1.02;;
64403;SDS011;50726;54.912;-8.392;2022-08-21T13:46:14;4.13;;;1.13;;
64403;SDS011;50726;54.912;-8.392;2022-08-21T13:48:40;3.70;;;1.15;;
64403;SDS011;50726;54.912;-8.392;2022-08-21T13:51:08;8.27;;;0.88;;
64403;SDS011;50726;54.912;-8.392;2022-08-21T13:56:07;3.20;;;0.98;;
64403;SDS011;50726;54.912;-8.392;2022-08-21T13:58:41;1.48;;;0.75;;
64403;SDS011;50726;54.912;-8.392;2022-08-21T14:03:44;6.25;;;1.10;;
64403;SDS011;50726;54.912;-8.392;2022-08-21T14:06:17;4.63;;;1.38;;
64403;SDS011;50726;54.912;-8.392;2022-08-21T14:08:58;7.95;;;1.30;;
64403;SDS011;50726;54.912;-8.392;2022-08-21T14:11:27;5.60;;;1.00;;
64403;SDS011;50726;54.912;-8.392;2022-08-21T14:14:04;7.55;;;1.13;;
64403;SDS011;50726;54.912;-8.392;2022-08-21T14:16:53;3.58;;;1.20;;
64403;SDS011;50726;54.912;-8.392;2022-08-21T14:19:28;9.98;;;1.38;;
64403;SDS011;50726;54.912;-8.392;2022-08-21T14:22:12;7.97;;;1.15;;
64403;SDS011;50726;54.912;-8.392;2022-08-21T14:24:48;8.45;;;1.45;;
64403;SDS011;50726;54.912;-8.392;2022-08-21T14:27:16;7.90;;;1.55;;
64403;SDS011;50726;54.912;-8.392;2022-08-21T14:29:43;6.82;;;1.00;;
64403;SDS011;50726;54.912;-8.392;2022-08-21T14:32:12;13.27;;;1.67;;
64403;SDS011;50726;54.912;-8.392;2022-08-21T14:34:45;5.75;;;1.30;;
64403;SDS011;50726;54.912;-8.392;2022-08-21T14:37:12;10.15;;;1.48;;
64403;SDS011;50726;54.912;-8.392;2022-08-21T14:39:38;5.47;;;1.20;;
64403;SDS011;50726;54.912;-8.392;2022-08-21T14:42:03;10.27;;;1.10;;
64403;SDS011;50726;54.912;-8.392;2022-08-21T14:44:29;11.55;;;1.48;;
64403;SDS011;50726;54.912;-8.392;2022-08-21T14:46:58;8.10;;;1.00;;
64403;SDS011;50726;54.912;-8.392;2022-08-21T14:49:24;6.85;;;1.45;;
64403;SDS011;50726;54.912;-8.392;2022-08-21T14:51:52;7.10;;;1.52;;
64403;SDS011;50726;54.912;-8.392;2022-08-21T14:54:22;7.35;;;1.25;;
64403;SDS011;50726;54.912;-8.392;2022-08-21T14:56:49;6.35;;;1.40;;
64403;SDS011;50726;54.912;-8.392;2022-08-21T14:59:15;5.13;;;1.15;;
64403;SDS011;50726;54.912;-8.392;2022-08-21T15:01:42;6.78;;;1.48;;
64403;SDS011;50726;54.912;-8.392;2022-08-21T15:04:07;8.30;;;1.77;;
64403;SDS011;50726;54.912;-8.392;2022-08-21T15:06:33;5.18;;;1.35;;
64403;SDS011;50726;54.912;-8.392;2022-08-21T15:08:59;9.65;;;1.55;;
64403;SDS011;50726;54.912;-8.392;2022-08-21T15:11:24;9.57;;;1.30;;
64403;SDS011;50726;54.912;-8.392;2022-08-21T15:13:52;6.32;;;1.77;;
64403;SDS011;50726;54.912;-8.392;2022-08-21T15:16:24;12.40;;;1.85;;
64403;SDS011;50726;54.912;-8.392;2022-08-21T15:18:49;9.68;;;1.70;;
64403;SDS011;50726;54.912;-8.392;2022-08-21T15:21:15;5.25;;;1.48;;
64403;SDS011;50726;54.912;-8.392;2022-08-21T15:23:41;6.03;;;1.27;;